sensor_id;sensor_type;location;lat;lon;timestamp;P1;durP1;ratioP1;P2;durP2;ratioP2
55993;SDS011;67425;52.126;20.638;2023-08-21T00:01:33;21.60;;;15.77;;
55993;SDS011;67425;52.126;20.638;2023-08-21T00:04:04;20.90;;;15.65;;
55993;SDS011;67425;52.126;20.638;2023-08-21T00:06:57;22.90;;;15.77;;
55993;SDS011;67425;52.126;20.638;2023-08-21T00:09:49;25.30;;;16.90;;
55993;SDS011;67425;52.126;20.638;2023-08-21T00:12:20;32.40;;;16.02;;
55993;SDS011;67425;52.126;20.638;2023-08-21T00:15:01;29.70;;;18.13;;
55993;SDS011;67425;52.126;20.638;2023-08-21T00:17:29;24.20;;;16.88;;
55993;SDS011;67425;52.126;20.638;2023-08-21T00:20:12;22.02;;;15.73;;
55993;SDS011;67425;52.126;20.638;2023-08-21T00:22:48;25.42;;;16.13;;
55993;SDS011;67425;52.126;20.638;2023-08-21T00:28:07;31.58;;;17.60;;
55993;SDS011;67425;52.126;20.638;2023-08-21T00:31:02;32.33;;;16.92;;
55993;SDS011;67425;52.126;20.638;2023-08-21T00:33:39;22.13;;;15.68;;
55993;SDS011;67425;52.126;20.638;2023-08-21T00:36:15;34.97;;;17.63;;
55993;SDS011;67425;52.126;20.638;2023-08-21T00:41:53;34.88;;;17.30;;
55993;SDS011;67425;52.126;20.638;2023-08-21T00:44:38;23.10;;;14.90;;
55993;SDS011;67425;52.126;20.638;2023-08-21T00:47:17;31.25;;;17.02;;
55993;SDS011;67425;52.126;20.638;2023-08-21T00:49:44;29.98;;;15.20;;
55993;SDS011;67425;52.126;20.638;2023-08-21T00:52:27;33.63;;;14.40;;
55993;SDS011;67425;52.126;20.638;2023-08-21T00:55:01;23.58;;;14.75;;
55993;SDS011;67425;52.126;20.638;2023-08-21T00:57:36;22.25;;;13.95;;
55993;SDS011;67425;52.126;20.638;2023-08-21T01:00:15;32.33;;;14.27;;
55993;SDS011;67425;52.126;20.638;2023-08-21T01:02:42;23.67;;;14.27;;
55993;SDS011;67425;52.126;20.638;2023-08-21T01:05:17;23.38;;;14.43;;
55993;SDS011;67425;52.126;20.638;2023-08-21T01:08:04;20.35;;;14.88;;
55993;SDS011;67425;52.126;20.638;2023-08-21T01:14:22;21.65;;;14.73;;
55993;SDS011;67425;52.126;20.638;2023-08-21T01:17:16;27.30;;;14.98;;
55993;SDS011;67425;52.126;20.638;2023-08-21T01:19:51;25.73;;;15.20;;
55993;SDS011;67425;52.126;20.638;2023-08-21T01:22:38;20.15;;;15.00;;
55993;SDS011;67425;52.126;20.638;2023-08-21T01:25:23;18.65;;;12.63;;
55993;SDS011;67425;52.126;20.638;2023-08-21T01:27:59;29.27;;;13.73;;
55993;SDS011;67425;52.126;20.638;2023-08-21T01:33:55;22.20;;;13.35;;
55993;SDS011;67425;52.126;20.638;2023-08-21T01:36:57;24.58;;;13.73;;
55993;SDS011;67425;52.126;20.638;2023-08-21T01:39:43;20.63;;;13.25;;
55993;SDS011;67425;52.126;20.638;2023-08-21T01:42:40;19.90;;;14.00;;
55993;SDS011;67425;52.126;20.638;2023-08-21T01:45:17;22.52;;;13.68;;
55993;SDS011;67425;52.126;20.638;2023-08-21T01:47:48;26.25;;;15.23;;
55993;SDS011;67425;52.126;20.638;2023-08-21T01:50:22;18.08;;;13.48;;
55993;SDS011;67425;52.126;20.638;2023-08-21T01:52:55;20.02;;;14.73;;
55993;SDS011;67425;52.126;20.638;2023-08-21T01:58:16;21.45;;;13.07;;
55993;SDS011;67425;52.126;20.638;2023-08-21T02:00:56;32.67;;;14.68;;
55993;SDS011;67425;52.126;20.638;2023-08-21T02:03:37;21.63;;;13.45;;
55993;SDS011;67425;52.126;20.638;2023-08-21T02:06:18;23.25;;;13.77;;
55993;SDS011;67425;52.126;20.638;2023-08-21T02:09:07;23.30;;;14.43;;
55993;SDS011;67425;52.126;20.638;2023-08-21T02:11:33;21.50;;;13.15;;
55993;SDS011;67425;52.126;20.638;2023-08-21T02:13:59;19.67;;;13.57;;
55993;SDS011;67425;52.126;20.638;2023-08-21T02:16:35;21.15;;;13.80;;
55993;SDS011;67425;52.126;20.638;2023-08-21T02:22:08;22.92;;;14.77;;
55993;SDS011;67425;52.126;20.638;2023-08-21T02:24:56;19.92;;;14.23;;
55993;SDS011;67425;52.126;20.638;2023-08-21T02:27:49;21.90;;;14.52;;
55993;SDS011;67425;52.126;20.638;2023-08-21T02:30:17;23.00;;;14.63;;
55993;SDS011;67425;52.126;20.638;2023-08-21T02:32:50;30.23;;;15.02;;
55993;SDS011;67425;52.126;20.638;2023-08-21T02:35:21;27.38;;;14.70;;
55993;SDS011;67425;52.126;20.638;2023-08-21T02:37:56;20.88;;;14.25;;
55993;SDS011;67425;52.126;20.638;2023-08-21T02:40:42;18.73;;;12.75;;
55993;SDS011;67425;52.126;20.638;2023-08-21T02:43:16;19.55;;;13.40;;
55993;SDS011;67425;52.126;20.638;2023-08-21T02:48:20;24.67;;;12.90;;
55993;SDS011;67425;52.126;20.638;2023-08-21T02:50:46;21.27;;;13.27;;
55993;SDS011;67425;52.126;20.638;2023-08-21T02:53:19;18.40;;;12.32;;
55993;SDS011;67425;52.126;20.638;2023-08-21T02:58:38;21.25;;;13.35;;
55993;SDS011;67425;52.126;20.638;2023-08-21T03:01:23;17.83;;;13.32;;
55993;SDS011;67425;52.126;20.638;2023-08-21T03:03:55;16.92;;;12.95;;
55993;SDS011;67425;52.126;20.638;2023-08-21T03:06:37;29.65;;;13.48;;
55993;SDS011;67425;52.126;20.638;2023-08-21T03:09:09;20.23;;;13.93;;
55993;SDS011;67425;52.126;20.638;2023-08-21T03:11:46;18.85;;;13.55;;
55993;SDS011;67425;52.126;20.638;2023-08-21T03:14:21;16.45;;;12.27;;
55993;SDS011;67425;52.126;20.638;2023-08-21T03:17:02;21.67;;;13.02;;
55993;SDS011;67425;52.126;20.638;2023-08-21T03:19:37;18.95;;;13.65;;
55993;SDS011;67425;52.126;20.638;2023-08-21T03:22:11;22.75;;;13.38;;
55993;SDS011;67425;52.126;20.638;2023-08-21T03:24:56;15.43;;;12.55;;
55993;SDS011;67425;52.126;20.638;2023-08-21T03:27:35;15.73;;;13.25;;
55993;SDS011;67425;52.126;20.638;2023-08-21T03:30:09;16.20;;;12.38;;
55993;SDS011;67425;52.126;20.638;2023-08-21T03:33:00;15.68;;;11.20;;
55993;SDS011;67425;52.126;20.638;2023-08-21T03:35:33;17.08;;;12.52;;
55993;SDS011;67425;52.126;20.638;2023-08-21T03:38:08;20.90;;;14.32;;
55993;SDS011;67425;52.126;20.638;2023-08-21T03:40:44;22.90;;;15.10;;
55993;SDS011;67425;52.126;20.638;2023-08-21T03:43:11;30.80;;;14.13;;
55993;SDS011;67425;52.126;20.638;2023-08-21T03:45:51;22.50;;;13.77;;
55993;SDS011;67425;52.126;20.638;2023-08-21T03:48:20;17.73;;;12.68;;
55993;SDS011;67425;52.126;20.638;2023-08-21T03:51:10;22.10;;;13.00;;
55993;SDS011;67425;52.126;20.638;2023-08-21T03:53:38;24.90;;;13.10;;
55993;SDS011;67425;52.126;20.638;2023-08-21T03:56:10;28.75;;;15.38;;
55993;SDS011;67425;52.126;20.638;2023-08-21T03:58:40;23.67;;;15.05;;
55993;SDS011;67425;52.126;20.638;2023-08-21T04:01:27;24.25;;;13.57;;
55993;SDS011;67425;52.126;20.638;2023-08-21T04:04:05;22.92;;;12.95;;
55993;SDS011;67425;52.126;20.638;2023-08-21T04:06:49;22.73;;;15.10;;
55993;SDS011;67425;52.126;20.638;2023-08-21T04:09:15;19.58;;;14.35;;
55993;SDS011;67425;52.126;20.638;2023-08-21T04:11:52;24.65;;;13.93;;
55993;SDS011;67425;52.126;20.638;2023-08-21T04:14:23;19.23;;;14.07;;
55993;SDS011;67425;52.126;20.638;2023-08-21T04:16:52;22.05;;;14.10;;
55993;SDS011;67425;52.126;20.638;2023-08-21T04:19:18;26.10;;;14.93;;
55993;SDS011;67425;52.126;20.638;2023-08-21T04:22:00;25.73;;;15.77;;
55993;SDS011;67425;52.126;20.638;2023-08-21T04:24:31;24.30;;;13.38;;
55993;SDS011;67425;52.126;20.638;2023-08-21T04:27:08;22.23;;;13.77;;
55993;SDS011;67425;52.126;20.638;2023-08-21T04:29:38;23.70;;;14.15;;
55993;SDS011;67425;52.126;20.638;2023-08-21T04:32:07;21.50;;;14.00;;
55993;SDS011;67425;52.126;20.638;2023-08-21T04:34:45;23.63;;;13.95;;
55993;SDS011;67425;52.126;20.638;2023-08-21T04:37:17;21.98;;;13.30;;
55993;SDS011;67425;52.126;20.638;2023-08-21T04:39:57;25.38;;;13.70;;
55993;SDS011;67425;52.126;20.638;2023-08-21T04:42:27;26.13;;;14.27;;
55993;SDS011;67425;52.126;20.638;2023-08-21T04:45:02;20.90;;;13.68;;
55993;SDS011;67425;52.126;20.638;2023-08-21T04:47:46;21.92;;;15.20;;
55993;SDS011;67425;52.126;20.638;2023-08-21T04:50:12;16.77;;;13.50;;
55993;SDS011;67425;52.126;20.638;2023-08-21T04:52:47;18.75;;;13.45;;
55993;SDS011;67425;52.126;20.638;2023-08-21T04:55:21;25.02;;;14.07;;
55993;SDS011;67425;52.126;20.638;2023-08-21T04:57:55;23.02;;;15.27;;
55993;SDS011;67425;52.126;20.638;2023-08-21T05:00:35;21.90;;;13.52;;
55993;SDS011;67425;52.126;20.638;2023-08-21T05:03:06;26.05;;;15.32;;
55993;SDS011;67425;52.126;20.638;2023-08-21T05:05:51;26.80;;;14.25;;
55993;SDS011;67425;52.126;20.638;2023-08-21T05:08:20;23.95;;;14.85;;
55993;SDS011;67425;52.126;20.638;2023-08-21T05:10:54;20.40;;;13.80;;
55993;SDS011;67425;52.126;20.638;2023-08-21T05:13:36;31.45;;;13.45;;
55993;SDS011;67425;52.126;20.638;2023-08-21T05:16:18;18.08;;;13.05;;
55993;SDS011;67425;52.126;20.638;2023-08-21T05:18:49;26.92;;;15.45;;
55993;SDS011;67425;52.126;20.638;2023-08-21T05:21:18;25.27;;;15.68;;
55993;SDS011;67425;52.126;20.638;2023-08-21T05:23:49;26.73;;;15.95;;
55993;SDS011;67425;52.126;20.638;2023-08-21T05:26:22;26.17;;;15.35;;
55993;SDS011;67425;52.126;20.638;2023-08-21T05:28:51;24.80;;;15.77;;
55993;SDS011;67425;52.126;20.638;2023-08-21T05:31:32;28.73;;;14.27;;
55993;SDS011;67425;52.126;20.638;2023-08-21T05:34:04;28.60;;;15.48;;
55993;SDS011;67425;52.126;20.638;2023-08-21T05:39:18;25.95;;;13.57;;
55993;SDS011;67425;52.126;20.638;2023-08-21T05:44:27;22.65;;;14.23;;
55993;SDS011;67425;52.126;20.638;2023-08-21T05:46:56;24.55;;;15.07;;
55993;SDS011;67425;52.126;20.638;2023-08-21T05:49:32;22.95;;;14.95;;
55993;SDS011;67425;52.126;20.638;2023-08-21T05:52:00;26.35;;;17.45;;
55993;SDS011;67425;52.126;20.638;2023-08-21T05:54:34;21.17;;;15.25;;
55993;SDS011;67425;52.126;20.638;2023-08-21T05:57:06;20.80;;;14.52;;
55993;SDS011;67425;52.126;20.638;2023-08-21T05:59:34;27.15;;;14.57;;
55993;SDS011;67425;52.126;20.638;2023-08-21T06:02:16;24.33;;;16.63;;
55993;SDS011;67425;52.126;20.638;2023-08-21T06:04:45;24.27;;;15.02;;
55993;SDS011;67425;52.126;20.638;2023-08-21T06:07:17;26.05;;;15.95;;
55993;SDS011;67425;52.126;20.638;2023-08-21T06:09:48;18.73;;;15.07;;
55993;SDS011;67425;52.126;20.638;2023-08-21T06:12:19;23.85;;;16.30;;
55993;SDS011;67425;52.126;20.638;2023-08-21T06:14:55;28.52;;;18.55;;
55993;SDS011;67425;52.126;20.638;2023-08-21T06:17:27;35.08;;;16.02;;
55993;SDS011;67425;52.126;20.638;2023-08-21T06:20:13;29.15;;;16.20;;
55993;SDS011;67425;52.126;20.638;2023-08-21T06:22:45;26.42;;;16.15;;
55993;SDS011;67425;52.126;20.638;2023-08-21T06:25:19;21.33;;;14.88;;
55993;SDS011;67425;52.126;20.638;2023-08-21T06:28:05;22.55;;;15.98;;
55993;SDS011;67425;52.126;20.638;2023-08-21T06:30:39;24.42;;;15.95;;
55993;SDS011;67425;52.126;20.638;2023-08-21T06:33:05;22.05;;;15.50;;
55993;SDS011;67425;52.126;20.638;2023-08-21T06:35:37;20.92;;;15.10;;
55993;SDS011;67425;52.126;20.638;2023-08-21T06:38:19;21.98;;;14.35;;
55993;SDS011;67425;52.126;20.638;2023-08-21T06:40:53;31.30;;;15.75;;
55993;SDS011;67425;52.126;20.638;2023-08-21T06:43:27;24.77;;;15.65;;
55993;SDS011;67425;52.126;20.638;2023-08-21T06:46:01;24.42;;;16.65;;
55993;SDS011;67425;52.126;20.638;2023-08-21T06:48:38;20.50;;;14.48;;
55993;SDS011;67425;52.126;20.638;2023-08-21T06:51:34;22.83;;;16.17;;
55993;SDS011;67425;52.126;20.638;2023-08-21T06:54:36;31.27;;;17.00;;
55993;SDS011;67425;52.126;20.638;2023-08-21T06:56:59;27.10;;;17.65;;
55993;SDS011;67425;52.126;20.638;2023-08-21T06:59:36;22.10;;;16.42;;
55993;SDS011;67425;52.126;20.638;2023-08-21T07:02:05;35.42;;;17.25;;
55993;SDS011;67425;52.126;20.638;2023-08-21T07:04:35;22.73;;;16.88;;
55993;SDS011;67425;52.126;20.638;2023-08-21T07:07:17;27.70;;;17.48;;
55993;SDS011;67425;52.126;20.638;2023-08-21T07:09:54;26.27;;;18.10;;
55993;SDS011;67425;52.126;20.638;2023-08-21T07:12:27;29.85;;;17.85;;
55993;SDS011;67425;52.126;20.638;2023-08-21T07:14:59;35.90;;;19.42;;
55993;SDS011;67425;52.126;20.638;2023-08-21T07:17:38;23.40;;;17.55;;
55993;SDS011;67425;52.126;20.638;2023-08-21T07:20:21;25.33;;;18.02;;
55993;SDS011;67425;52.126;20.638;2023-08-21T07:23:05;29.23;;;18.75;;
55993;SDS011;67425;52.126;20.638;2023-08-21T07:25:51;23.02;;;17.65;;
55993;SDS011;67425;52.126;20.638;2023-08-21T07:28:36;30.08;;;18.42;;
55993;SDS011;67425;52.126;20.638;2023-08-21T07:31:08;28.63;;;18.55;;
55993;SDS011;67425;52.126;20.638;2023-08-21T07:33:50;25.15;;;18.27;;
55993;SDS011;67425;52.126;20.638;2023-08-21T07:36:26;21.30;;;17.25;;
55993;SDS011;67425;52.126;20.638;2023-08-21T07:41:23;28.77;;;15.35;;
55993;SDS011;67425;52.126;20.638;2023-08-21T07:44:07;23.90;;;16.80;;
55993;SDS011;67425;52.126;20.638;2023-08-21T07:46:50;22.20;;;17.05;;
55993;SDS011;67425;52.126;20.638;2023-08-21T07:49:23;24.70;;;15.57;;
55993;SDS011;67425;52.126;20.638;2023-08-21T07:54:59;25.33;;;16.65;;
55993;SDS011;67425;52.126;20.638;2023-08-21T07:57:27;23.90;;;16.20;;
55993;SDS011;67425;52.126;20.638;2023-08-21T07:59:58;22.75;;;15.13;;
55993;SDS011;67425;52.126;20.638;2023-08-21T08:02:39;29.58;;;15.07;;
55993;SDS011;67425;52.126;20.638;2023-08-21T08:05:13;27.95;;;17.20;;
55993;SDS011;67425;52.126;20.638;2023-08-21T08:07:56;27.85;;;14.57;;
55993;SDS011;67425;52.126;20.638;2023-08-21T08:10:30;21.40;;;14.73;;
55993;SDS011;67425;52.126;20.638;2023-08-21T08:16:28;18.85;;;14.30;;
55993;SDS011;67425;52.126;20.638;2023-08-21T08:18:53;18.38;;;13.18;;
55993;SDS011;67425;52.126;20.638;2023-08-21T08:21:19;18.48;;;12.93;;
55993;SDS011;67425;52.126;20.638;2023-08-21T08:23:44;19.38;;;13.48;;
55993;SDS011;67425;52.126;20.638;2023-08-21T08:26:10;20.88;;;14.02;;
55993;SDS011;67425;52.126;20.638;2023-08-21T08:28:35;14.75;;;12.38;;
55993;SDS011;67425;52.126;20.638;2023-08-21T08:31:00;26.58;;;12.82;;
55993;SDS011;67425;52.126;20.638;2023-08-21T08:33:26;19.15;;;12.90;;
55993;SDS011;67425;52.126;20.638;2023-08-21T08:35:51;20.65;;;12.90;;
55993;SDS011;67425;52.126;20.638;2023-08-21T08:38:17;22.45;;;12.35;;
55993;SDS011;67425;52.126;20.638;2023-08-21T08:40:44;15.15;;;12.93;;
55993;SDS011;67425;52.126;20.638;2023-08-21T08:43:11;24.30;;;12.90;;
55993;SDS011;67425;52.126;20.638;2023-08-21T08:45:37;19.27;;;12.05;;
55993;SDS011;67425;52.126;20.638;2023-08-21T08:48:05;19.52;;;12.27;;
55993;SDS011;67425;52.126;20.638;2023-08-21T08:50:32;21.25;;;11.73;;
55993;SDS011;67425;52.126;20.638;2023-08-21T08:52:59;15.73;;;10.15;;
55993;SDS011;67425;52.126;20.638;2023-08-21T08:55:25;12.82;;;10.23;;
55993;SDS011;67425;52.126;20.638;2023-08-21T08:57:55;13.27;;;9.88;;
55993;SDS011;67425;52.126;20.638;2023-08-21T09:00:21;11.93;;;9.32;;
55993;SDS011;67425;52.126;20.638;2023-08-21T09:02:47;19.33;;;7.97;;
55993;SDS011;67425;52.126;20.638;2023-08-21T09:05:13;8.73;;;7.85;;
55993;SDS011;67425;52.126;20.638;2023-08-21T09:07:38;13.85;;;8.18;;
55993;SDS011;67425;52.126;20.638;2023-08-21T09:10:04;7.10;;;6.38;;
55993;SDS011;67425;52.126;20.638;2023-08-21T09:12:37;9.50;;;6.88;;
55993;SDS011;67425;52.126;20.638;2023-08-21T09:15:07;11.95;;;7.43;;
55993;SDS011;67425;52.126;20.638;2023-08-21T09:17:33;10.13;;;6.35;;
55993;SDS011;67425;52.126;20.638;2023-08-21T09:20:05;7.10;;;6.40;;
55993;SDS011;67425;52.126;20.638;2023-08-21T09:22:31;6.70;;;5.90;;
55993;SDS011;67425;52.126;20.638;2023-08-21T09:25:03;8.00;;;5.45;;
55993;SDS011;67425;52.126;20.638;2023-08-21T09:27:37;5.65;;;5.07;;
55993;SDS011;67425;52.126;20.638;2023-08-21T09:30:10;5.82;;;5.18;;
55993;SDS011;67425;52.126;20.638;2023-08-21T09:33:01;6.38;;;5.00;;
55993;SDS011;67425;52.126;20.638;2023-08-21T09:35:26;6.30;;;5.30;;
55993;SDS011;67425;52.126;20.638;2023-08-21T09:37:51;5.30;;;4.90;;
55993;SDS011;67425;52.126;20.638;2023-08-21T09:40:20;6.40;;;4.97;;
55993;SDS011;67425;52.126;20.638;2023-08-21T09:42:51;7.40;;;6.10;;
55993;SDS011;67425;52.126;20.638;2023-08-21T09:45:19;7.65;;;5.38;;
55993;SDS011;67425;52.126;20.638;2023-08-21T09:47:46;5.03;;;4.38;;
55993;SDS011;67425;52.126;20.638;2023-08-21T09:50:11;5.90;;;4.70;;
55993;SDS011;67425;52.126;20.638;2023-08-21T09:52:37;4.82;;;4.38;;
55993;SDS011;67425;52.126;20.638;2023-08-21T09:55:02;4.20;;;3.88;;
55993;SDS011;67425;52.126;20.638;2023-08-21T09:57:30;7.00;;;4.20;;
55993;SDS011;67425;52.126;20.638;2023-08-21T09:59:56;4.70;;;4.30;;
55993;SDS011;67425;52.126;20.638;2023-08-21T10:02:23;4.28;;;3.90;;
55993;SDS011;67425;52.126;20.638;2023-08-21T10:04:50;4.32;;;4.03;;
55993;SDS011;67425;52.126;20.638;2023-08-21T10:07:17;6.93;;;6.15;;
55993;SDS011;67425;52.126;20.638;2023-08-21T10:09:45;6.13;;;4.78;;
55993;SDS011;67425;52.126;20.638;2023-08-21T10:12:12;4.85;;;4.45;;
55993;SDS011;67425;52.126;20.638;2023-08-21T10:14:39;8.25;;;4.47;;
55993;SDS011;67425;52.126;20.638;2023-08-21T10:17:06;5.38;;;4.47;;
55993;SDS011;67425;52.126;20.638;2023-08-21T10:19:33;4.50;;;4.10;;
55993;SDS011;67425;52.126;20.638;2023-08-21T10:21:59;4.20;;;3.80;;
55993;SDS011;67425;52.126;20.638;2023-08-21T10:24:26;4.15;;;3.33;;
55993;SDS011;67425;52.126;20.638;2023-08-21T10:26:53;3.60;;;3.30;;
55993;SDS011;67425;52.126;20.638;2023-08-21T10:29:19;3.63;;;3.42;;
55993;SDS011;67425;52.126;20.638;2023-08-21T10:31:45;3.55;;;3.30;;
55993;SDS011;67425;52.126;20.638;2023-08-21T10:34:11;6.50;;;3.10;;
55993;SDS011;67425;52.126;20.638;2023-08-21T10:39:16;3.65;;;2.85;;
55993;SDS011;67425;52.126;20.638;2023-08-21T10:44:33;6.85;;;3.55;;
55993;SDS011;67425;52.126;20.638;2023-08-21T10:49:45;4.07;;;3.40;;
55993;SDS011;67425;52.126;20.638;2023-08-21T10:52:11;6.13;;;3.20;;
55993;SDS011;67425;52.126;20.638;2023-08-21T10:55:11;3.58;;;3.28;;
55993;SDS011;67425;52.126;20.638;2023-08-21T10:57:29;7.43;;;3.45;;
55993;SDS011;67425;52.126;20.638;2023-08-21T11:00:00;5.93;;;3.45;;
55993;SDS011;67425;52.126;20.638;2023-08-21T11:02:27;4.03;;;3.30;;
55993;SDS011;67425;52.126;20.638;2023-08-21T11:04:57;3.10;;;2.90;;
55993;SDS011;67425;52.126;20.638;2023-08-21T11:07:24;9.00;;;3.53;;
55993;SDS011;67425;52.126;20.638;2023-08-21T11:09:50;3.72;;;3.40;;
55993;SDS011;67425;52.126;20.638;2023-08-21T11:12:16;4.97;;;3.25;;
55993;SDS011;67425;52.126;20.638;2023-08-21T11:14:44;3.08;;;2.88;;
55993;SDS011;67425;52.126;20.638;2023-08-21T11:17:09;2.83;;;2.63;;
55993;SDS011;67425;52.126;20.638;2023-08-21T11:19:36;2.60;;;2.40;;
55993;SDS011;67425;52.126;20.638;2023-08-21T11:22:02;2.45;;;2.25;;
55993;SDS011;67425;52.126;20.638;2023-08-21T11:24:42;2.22;;;2.03;;
55993;SDS011;67425;52.126;20.638;2023-08-21T11:27:10;3.55;;;2.58;;
55993;SDS011;67425;52.126;20.638;2023-08-21T11:29:38;4.50;;;2.42;;
55993;SDS011;67425;52.126;20.638;2023-08-21T11:32:15;2.97;;;2.53;;
55993;SDS011;67425;52.126;20.638;2023-08-21T11:34:46;12.48;;;2.60;;
55993;SDS011;67425;52.126;20.638;2023-08-21T11:37:13;7.38;;;2.50;;
55993;SDS011;67425;52.126;20.638;2023-08-21T11:39:42;3.53;;;2.78;;
55993;SDS011;67425;52.126;20.638;2023-08-21T11:42:09;3.60;;;2.78;;
55993;SDS011;67425;52.126;20.638;2023-08-21T11:44:40;7.97;;;2.40;;
55993;SDS011;67425;52.126;20.638;2023-08-21T11:47:11;2.83;;;1.95;;
55993;SDS011;67425;52.126;20.638;2023-08-21T11:49:40;3.58;;;1.55;;
55993;SDS011;67425;52.126;20.638;2023-08-21T11:52:07;4.32;;;1.77;;
55993;SDS011;67425;52.126;20.638;2023-08-21T11:54:33;8.50;;;1.92;;
55993;SDS011;67425;52.126;20.638;2023-08-21T11:57:03;2.35;;;2.25;;
55993;SDS011;67425;52.126;20.638;2023-08-21T11:59:29;2.03;;;1.83;;
55993;SDS011;67425;52.126;20.638;2023-08-21T12:01:55;1.42;;;1.33;;
55993;SDS011;67425;52.126;20.638;2023-08-21T12:04:20;1.85;;;1.73;;
55993;SDS011;67425;52.126;20.638;2023-08-21T12:06:45;4.22;;;1.10;;
55993;SDS011;67425;52.126;20.638;2023-08-21T12:09:11;7.95;;;1.80;;
55993;SDS011;67425;52.126;20.638;2023-08-21T12:11:36;3.10;;;1.80;;
55993;SDS011;67425;52.126;20.638;2023-08-21T12:14:03;3.25;;;1.75;;
55993;SDS011;67425;52.126;20.638;2023-08-21T12:16:29;1.80;;;1.70;;
55993;SDS011;67425;52.126;20.638;2023-08-21T12:18:54;4.50;;;1.73;;
55993;SDS011;67425;52.126;20.638;2023-08-21T12:21:22;7.25;;;1.90;;
55993;SDS011;67425;52.126;20.638;2023-08-21T12:23:50;1.92;;;1.70;;
55993;SDS011;67425;52.126;20.638;2023-08-21T12:26:16;4.38;;;2.10;;
55993;SDS011;67425;52.126;20.638;2023-08-21T12:28:48;1.90;;;1.50;;
55993;SDS011;67425;52.126;20.638;2023-08-21T12:31:13;7.07;;;1.52;;
55993;SDS011;67425;52.126;20.638;2023-08-21T12:33:39;1.55;;;1.45;;
55993;SDS011;67425;52.126;20.638;2023-08-21T12:36:04;2.53;;;1.77;;
55993;SDS011;67425;52.126;20.638;2023-08-21T12:38:30;1.98;;;1.38;;
55993;SDS011;67425;52.126;20.638;2023-08-21T12:40:55;2.35;;;1.50;;
55993;SDS011;67425;52.126;20.638;2023-08-21T12:43:21;1.77;;;1.67;;
55993;SDS011;67425;52.126;20.638;2023-08-21T12:45:46;2.22;;;1.77;;
55993;SDS011;67425;52.126;20.638;2023-08-21T12:48:12;5.25;;;2.15;;
55993;SDS011;67425;52.126;20.638;2023-08-21T12:50:37;2.63;;;1.42;;
55993;SDS011;67425;52.126;20.638;2023-08-21T12:53:03;7.28;;;2.30;;
55993;SDS011;67425;52.126;20.638;2023-08-21T12:55:28;2.00;;;1.52;;
55993;SDS011;67425;52.126;20.638;2023-08-21T12:57:54;6.15;;;1.50;;
55993;SDS011;67425;52.126;20.638;2023-08-21T13:00:20;6.00;;;2.38;;
55993;SDS011;67425;52.126;20.638;2023-08-21T13:02:46;2.03;;;1.52;;
55993;SDS011;67425;52.126;20.638;2023-08-21T13:05:11;5.47;;;1.65;;
55993;SDS011;67425;52.126;20.638;2023-08-21T13:07:36;4.88;;;1.58;;
55993;SDS011;67425;52.126;20.638;2023-08-21T13:10:02;1.70;;;1.60;;
55993;SDS011;67425;52.126;20.638;2023-08-21T13:12:27;2.38;;;1.45;;
55993;SDS011;67425;52.126;20.638;2023-08-21T13:14:53;4.70;;;1.30;;
55993;SDS011;67425;52.126;20.638;2023-08-21T13:17:19;2.00;;;1.70;;
55993;SDS011;67425;52.126;20.638;2023-08-21T13:19:44;3.92;;;1.77;;
55993;SDS011;67425;52.126;20.638;2023-08-21T13:22:10;7.43;;;1.50;;
55993;SDS011;67425;52.126;20.638;2023-08-21T13:24:35;2.00;;;1.38;;
55993;SDS011;67425;52.126;20.638;2023-08-21T13:27:01;4.20;;;1.60;;
55993;SDS011;67425;52.126;20.638;2023-08-21T13:29:26;3.75;;;2.67;;
55993;SDS011;67425;52.126;20.638;2023-08-21T13:31:51;3.15;;;1.42;;
55993;SDS011;67425;52.126;20.638;2023-08-21T13:34:17;3.03;;;2.00;;
55993;SDS011;67425;52.126;20.638;2023-08-21T13:36:42;3.17;;;1.60;;
55993;SDS011;67425;52.126;20.638;2023-08-21T13:39:08;2.03;;;1.70;;
55993;SDS011;67425;52.126;20.638;2023-08-21T13:41:35;2.60;;;1.67;;
55993;SDS011;67425;52.126;20.638;2023-08-21T13:44:01;4.72;;;2.10;;
55993;SDS011;67425;52.126;20.638;2023-08-21T13:46:26;1.60;;;1.50;;
55993;SDS011;67425;52.126;20.638;2023-08-21T13:48:52;2.90;;;1.63;;
55993;SDS011;67425;52.126;20.638;2023-08-21T13:51:17;1.57;;;1.47;;
55993;SDS011;67425;52.126;20.638;2023-08-21T13:53:42;3.28;;;1.60;;
55993;SDS011;67425;52.126;20.638;2023-08-21T13:56:08;4.25;;;1.40;;
55993;SDS011;67425;52.126;20.638;2023-08-21T13:58:33;4.60;;;1.65;;
55993;SDS011;67425;52.126;20.638;2023-08-21T14:00:59;1.98;;;1.52;;
55993;SDS011;67425;52.126;20.638;2023-08-21T14:03:24;4.47;;;1.60;;
55993;SDS011;67425;52.126;20.638;2023-08-21T14:05:49;8.38;;;1.77;;
55993;SDS011;67425;52.126;20.638;2023-08-21T14:08:15;2.33;;;1.75;;
55993;SDS011;67425;52.126;20.638;2023-08-21T14:10:40;7.43;;;1.85;;
55993;SDS011;67425;52.126;20.638;2023-08-21T14:13:06;4.90;;;1.75;;
55993;SDS011;67425;52.126;20.638;2023-08-21T14:15:33;4.35;;;1.70;;
55993;SDS011;67425;52.126;20.638;2023-08-21T14:17:59;2.15;;;1.60;;
55993;SDS011;67425;52.126;20.638;2023-08-21T14:20:24;4.25;;;1.75;;
55993;SDS011;67425;52.126;20.638;2023-08-21T14:22:50;1.58;;;1.48;;
55993;SDS011;67425;52.126;20.638;2023-08-21T14:25:16;4.13;;;1.58;;
55993;SDS011;67425;52.126;20.638;2023-08-21T14:27:42;2.40;;;1.45;;
55993;SDS011;67425;52.126;20.638;2023-08-21T14:30:08;5.45;;;1.48;;
55993;SDS011;67425;52.126;20.638;2023-08-21T14:32:33;1.35;;;1.25;;
55993;SDS011;67425;52.126;20.638;2023-08-21T14:34:59;8.60;;;1.65;;
55993;SDS011;67425;52.126;20.638;2023-08-21T14:37:24;6.25;;;1.70;;
55993;SDS011;67425;52.126;20.638;2023-08-21T14:39:49;1.50;;;1.30;;
55993;SDS011;67425;52.126;20.638;2023-08-21T14:42:15;4.13;;;1.63;;
55993;SDS011;67425;52.126;20.638;2023-08-21T14:44:40;6.85;;;1.38;;
55993;SDS011;67425;52.126;20.638;2023-08-21T14:47:05;7.75;;;1.73;;
55993;SDS011;67425;52.126;20.638;2023-08-21T14:49:31;1.73;;;1.55;;
55993;SDS011;67425;52.126;20.638;2023-08-21T14:51:57;1.88;;;1.50;;
55993;SDS011;67425;52.126;20.638;2023-08-21T14:54:23;2.53;;;1.77;;
55993;SDS011;67425;52.126;20.638;2023-08-21T14:56:48;8.70;;;1.60;;
55993;SDS011;67425;52.126;20.638;2023-08-21T14:59:14;4.38;;;1.75;;
55993;SDS011;67425;52.126;20.638;2023-08-21T15:01:39;5.57;;;1.63;;
55993;SDS011;67425;52.126;20.638;2023-08-21T15:04:06;10.65;;;1.70;;
55993;SDS011;67425;52.126;20.638;2023-08-21T15:06:32;6.38;;;1.67;;
55993;SDS011;67425;52.126;20.638;2023-08-21T15:08:57;2.75;;;1.38;;
55993;SDS011;67425;52.126;20.638;2023-08-21T15:11:23;1.60;;;1.50;;
55993;SDS011;67425;52.126;20.638;2023-08-21T15:13:48;2.08;;;1.67;;
55993;SDS011;67425;52.126;20.638;2023-08-21T15:16:13;6.73;;;2.00;;
55993;SDS011;67425;52.126;20.638;2023-08-21T15:18:39;3.90;;;1.55;;
55993;SDS011;67425;52.126;20.638;2023-08-21T15:21:04;4.43;;;1.90;;
55993;SDS011;67425;52.126;20.638;2023-08-21T15:23:29;1.90;;;1.42;;
55993;SDS011;67425;52.126;20.638;2023-08-21T15:25:55;1.70;;;1.60;;
55993;SDS011;67425;52.126;20.638;2023-08-21T15:28:20;3.75;;;1.50;;
55993;SDS011;67425;52.126;20.638;2023-08-21T15:30:45;2.65;;;1.90;;
55993;SDS011;67425;52.126;20.638;2023-08-21T15:33:11;2.47;;;2.28;;